ΕΜΥ, Εθνική Μετεωρολογική Υπηρεσία - Δελτία Καιρού, Προγνώσεις

ΑΕΡΟΝΑΥΤΙΛΙΑ

GREEK AIRPORTS CODES

LGKS 271000Z 16014KT 9999 FEW016 SCT025 18/14 Q1014 RMK BKN180=

EUROPEAN AIRPORTS CODES

LPPT 271030Z 34006KT 290V010 9999 FEW018 15/10 Q1028=